createdAt,value
2023-03-13T00:02:47.945Z,51.23
2023-03-13T00:03:47.884Z,44.40
2023-03-13T00:04:47.919Z,45.06
2023-03-13T00:05:47.880Z,42.95
2023-03-13T00:06:47.940Z,42.98
2023-03-13T00:07:47.873Z,43.17
2023-03-13T00:08:47.888Z,45.35
2023-03-13T00:09:49.003Z,42.99
2023-03-13T00:10:48.972Z,43.00
2023-03-13T00:11:49.078Z,43.00
2023-03-13T00:12:48.974Z,43.00
2023-03-13T00:13:48.997Z,43.16
2023-03-13T00:14:48.947Z,48.72
2023-03-13T00:15:48.957Z,43.38
2023-03-13T00:16:49.062Z,43.17
2023-03-13T00:17:48.965Z,45.48
2023-03-13T00:18:48.950Z,46.96
2023-03-13T00:19:48.924Z,43.42
2023-03-13T00:20:48.946Z,43.38
2023-03-13T00:21:48.910Z,43.25
2023-03-13T00:22:48.892Z,43.44
2023-03-13T00:23:48.881Z,43.41
2023-03-13T00:24:49.336Z,46.97
2023-03-13T00:25:48.864Z,45.70
2023-03-13T00:26:48.877Z,49.57
2023-03-13T00:27:48.867Z,43.62
2023-03-13T00:28:48.846Z,51.15
2023-03-13T00:29:48.881Z,48.03
2023-03-13T00:30:48.887Z,46.36
2023-03-13T00:31:49.736Z,45.73
2023-03-13T00:32:48.927Z,50.99
2023-03-13T00:33:48.855Z,53.18
2023-03-13T00:34:48.813Z,45.66
2023-03-13T00:35:48.887Z,45.78
2023-03-13T00:36:48.798Z,49.85
2023-03-13T00:37:48.777Z,47.03
2023-03-13T00:38:48.786Z,52.16
2023-03-13T00:39:48.752Z,44.60
2023-03-13T00:40:48.760Z,45.93
2023-03-13T00:41:48.913Z,47.27
2023-03-13T00:42:49.626Z,46.87
2023-03-13T00:43:48.727Z,45.23
2023-03-13T00:44:48.699Z,46.01
2023-03-13T00:45:48.779Z,46.99
2023-03-13T00:46:48.691Z,45.31
2023-03-13T00:47:48.705Z,45.66
2023-03-13T00:48:48.688Z,46.29
2023-03-13T00:49:48.676Z,47.23
2023-03-13T00:50:48.662Z,47.39
2023-03-13T00:51:48.726Z,50.43
2023-03-13T00:52:48.699Z,47.22
2023-03-13T00:53:48.657Z,46.95
2023-03-13T00:54:48.708Z,46.59
2023-03-13T00:55:48.705Z,47.26
2023-03-13T00:56:48.779Z,54.34
2023-03-13T00:57:48.704Z,48.51
2023-03-13T00:58:48.632Z,46.11
2023-03-13T00:59:49.194Z,45.88
2023-03-13T01:00:48.595Z,47.21
2023-03-13T01:01:48.638Z,47.40
2023-03-13T01:02:48.747Z,45.01
2023-03-13T01:03:50.994Z,50.83
2023-03-13T01:04:48.587Z,47.00
2023-03-13T01:05:48.562Z,51.14
2023-03-13T01:06:48.587Z,48.38
2023-03-13T01:07:48.625Z,65.18
2023-03-13T01:08:48.559Z,45.62
2023-03-13T01:09:48.555Z,52.52
2023-03-13T01:10:48.539Z,44.81
2023-03-13T01:11:48.524Z,44.37
2023-03-13T01:12:48.534Z,45.10
2023-03-13T01:13:49.211Z,44.19
2023-03-13T01:14:48.659Z,45.13
2023-03-13T01:15:48.540Z,50.98
2023-03-13T01:16:48.493Z,44.81
2023-03-13T01:17:48.473Z,46.84
2023-03-13T01:18:48.492Z,56.81
2023-03-13T01:19:48.481Z,45.90
2023-03-13T01:20:48.466Z,45.20
2023-03-13T01:21:48.493Z,45.98
2023-03-13T01:22:48.433Z,45.97
2023-03-13T01:23:48.454Z,45.30
2023-03-13T01:24:48.446Z,45.89
2023-03-13T01:25:48.424Z,45.32
2023-03-13T01:26:49.180Z,45.97
2023-03-13T01:27:49.150Z,44.90
2023-03-13T01:28:48.388Z,47.07
2023-03-13T01:29:48.396Z,56.12
2023-03-13T01:30:48.449Z,48.01
2023-03-13T01:31:48.397Z,49.80
2023-03-13T01:32:48.451Z,49.54
2023-03-13T01:33:48.376Z,44.63
2023-03-13T01:34:48.375Z,44.51
2023-03-13T01:35:48.384Z,48.73
2023-03-13T01:36:48.347Z,45.97
2023-03-13T01:37:48.357Z,46.62
2023-03-13T01:38:48.308Z,45.40
2023-03-13T01:39:48.495Z,46.79
2023-03-13T01:40:48.323Z,44.92
2023-03-13T01:41:48.280Z,45.39
2023-03-13T01:42:48.313Z,44.45
2023-03-13T01:43:49.718Z,44.61
2023-03-13T01:44:48.281Z,47.67
2023-03-13T01:45:48.291Z,45.49
2023-03-13T01:46:48.337Z,46.11
2023-03-13T01:47:48.270Z,50.38
2023-03-13T01:48:49.303Z,44.70
2023-03-13T01:49:49.234Z,45.42
2023-03-13T01:50:48.230Z,49.98
2023-03-13T01:51:48.235Z,46.51
2023-03-13T01:52:48.226Z,46.33
2023-03-13T01:53:48.194Z,50.83
2023-03-13T01:54:48.204Z,46.99
2023-03-13T01:55:48.217Z,48.37
2023-03-13T01:56:48.228Z,51.32
2023-03-13T01:57:48.186Z,51.20
2023-03-13T01:58:48.170Z,54.90
2023-03-13T01:59:48.147Z,44.46
2023-03-13T02:00:48.148Z,47.04
2023-03-13T02:01:48.176Z,51.90
2023-03-13T02:02:48.247Z,45.59
2023-03-13T02:06:27.902Z,44.81
2023-03-13T02:07:29.045Z,47.50
2023-03-13T02:08:29.020Z,50.29
2023-03-13T02:09:29.005Z,45.65
2023-03-13T02:10:29.015Z,45.67
2023-03-13T02:11:29.001Z,51.07
2023-03-13T02:12:29.015Z,45.71
2023-03-13T02:13:28.998Z,45.19
2023-03-13T02:14:28.986Z,46.51
2023-03-13T02:15:28.943Z,46.46
2023-03-13T02:16:28.989Z,50.64
2023-03-13T02:17:28.961Z,45.67
2023-03-13T02:18:28.971Z,46.82
2023-03-13T02:19:28.945Z,51.45
2023-03-13T02:20:29.423Z,45.73
2023-03-13T02:21:28.968Z,46.70
2023-03-13T02:22:28.918Z,46.36
2023-03-13T02:23:29.173Z,45.63
2023-03-13T02:24:28.869Z,45.86
2023-03-13T02:25:28.881Z,46.11
2023-03-13T02:26:28.865Z,50.55
2023-03-13T02:27:28.874Z,48.25
2023-03-13T02:28:28.883Z,46.49
2023-03-13T02:29:28.878Z,51.05
2023-03-13T02:30:28.852Z,45.04
2023-03-13T02:31:28.841Z,45.29
2023-03-13T02:32:28.923Z,44.80
2023-03-13T02:33:29.414Z,44.37
2023-03-13T02:34:28.840Z,45.30
2023-03-13T02:35:28.863Z,48.50
2023-03-13T02:36:28.820Z,48.85
2023-03-13T02:37:28.786Z,44.66
2023-03-13T02:38:28.786Z,55.52
2023-03-13T02:39:28.770Z,44.49
2023-03-13T02:40:30.618Z,44.22
2023-03-13T02:41:28.751Z,44.12
2023-03-13T02:42:28.745Z,44.39
2023-03-13T02:43:29.599Z,49.95
2023-03-13T02:44:28.753Z,55.11
2023-03-13T02:45:28.711Z,44.14
2023-03-13T02:46:28.749Z,44.14
2023-03-13T02:47:28.716Z,44.39
2023-03-13T02:48:28.714Z,45.09
2023-03-13T02:49:28.707Z,49.90
2023-03-13T02:50:28.684Z,45.35
2023-03-13T02:51:28.655Z,53.69
2023-03-13T02:52:28.696Z,58.07
2023-03-13T02:53:28.751Z,53.81
2023-03-13T02:54:28.665Z,56.25
2023-03-13T02:55:28.656Z,46.84
2023-03-13T02:56:29.584Z,49.36
2023-03-13T02:57:29.590Z,44.18
2023-03-13T02:58:30.281Z,44.55
2023-03-13T02:59:28.627Z,44.36
2023-03-13T03:00:28.681Z,51.58
2023-03-13T03:01:28.597Z,50.35
2023-03-13T03:02:28.629Z,52.90
2023-03-13T03:03:29.593Z,51.79
2023-03-13T03:04:28.571Z,44.40
2023-03-13T03:05:28.570Z,44.92
2023-03-13T03:06:28.574Z,44.32
2023-03-13T03:07:28.632Z,56.10
2023-03-13T03:08:28.552Z,49.17
2023-03-13T03:09:28.549Z,56.28
2023-03-13T03:10:28.563Z,53.34
2023-03-13T03:11:28.535Z,45.63
2023-03-13T03:12:28.568Z,50.76
2023-03-13T03:13:28.581Z,53.70
2023-03-13T03:14:28.486Z,48.97
2023-03-13T03:15:28.492Z,51.47
2023-03-13T03:16:28.537Z,49.29
2023-03-13T03:17:29.133Z,49.85
2023-03-13T03:18:28.482Z,55.67
2023-03-13T03:19:28.478Z,54.17
2023-03-13T03:20:29.448Z,50.92
2023-03-13T03:21:28.493Z,52.39
2023-03-13T03:22:28.451Z,57.69
2023-03-13T03:23:28.449Z,48.75
2023-03-13T03:24:28.444Z,53.33
2023-03-13T03:25:28.412Z,54.13
2023-03-13T03:26:28.407Z,56.58
2023-03-13T03:27:28.431Z,56.50
2023-03-13T03:28:28.388Z,53.07
2023-03-13T03:29:28.425Z,54.37
2023-03-13T03:30:28.925Z,50.04
2023-03-13T03:31:28.409Z,47.13
2023-03-13T03:32:28.515Z,54.15
2023-03-13T03:33:28.328Z,50.65
2023-03-13T03:34:29.387Z,50.07
2023-03-13T03:35:28.393Z,51.16
2023-03-13T03:36:28.320Z,58.71
2023-03-13T03:37:29.165Z,53.82
2023-03-13T03:38:28.302Z,46.97
2023-03-13T03:39:28.310Z,57.39
2023-03-13T03:40:28.665Z,57.13
2023-03-13T03:41:28.302Z,54.82
2023-03-13T03:42:28.284Z,55.63
2023-03-13T03:43:28.278Z,57.77
2023-03-13T03:44:29.110Z,60.32
2023-03-13T03:45:28.372Z,54.51
2023-03-13T03:46:28.250Z,54.26
2023-03-13T04:03:43.719Z,57.84
2023-03-13T04:04:43.535Z,59.17
2023-03-13T04:05:43.502Z,59.78
2023-03-13T04:06:44.705Z,53.14
2023-03-13T04:07:44.680Z,62.59
2023-03-13T04:08:44.685Z,59.97
2023-03-13T04:09:44.632Z,61.79
2023-03-13T04:10:44.632Z,59.60
2023-03-13T04:11:44.612Z,54.41
2023-03-13T04:12:44.591Z,56.27
2023-03-13T04:13:44.612Z,62.94
2023-03-13T04:14:44.598Z,55.73
2023-03-13T04:15:45.155Z,58.31
2023-03-13T04:16:44.660Z,59.65
2023-03-13T04:17:44.596Z,60.66
2023-03-13T04:18:44.604Z,53.05
2023-03-13T04:19:44.601Z,53.04
2023-03-13T04:20:44.585Z,64.20
2023-03-13T04:21:44.555Z,61.55
2023-03-13T04:22:44.556Z,68.05
2023-03-13T04:23:44.518Z,65.14
2023-03-13T04:24:44.600Z,62.87
2023-03-13T04:26:17.170Z,58.41
2023-03-13T04:26:44.568Z,64.30
2023-03-13T04:27:44.546Z,63.48
2023-03-13T04:28:44.498Z,67.93
2023-03-13T04:29:44.468Z,60.63
2023-03-13T04:30:44.524Z,61.66
2023-03-13T04:31:44.470Z,63.41
2023-03-13T04:32:44.589Z,66.31
2023-03-13T04:33:44.475Z,61.75
2023-03-13T04:34:44.410Z,67.03
2023-03-13T04:35:44.661Z,58.65
2023-03-13T04:36:44.429Z,63.83
2023-03-13T04:37:44.424Z,67.68
2023-03-13T04:38:44.386Z,64.97
2023-03-13T04:39:44.435Z,64.59
2023-03-13T04:40:44.403Z,66.62
2023-03-13T04:41:44.428Z,67.74
2023-03-13T04:42:44.355Z,70.51
2023-03-13T04:43:44.363Z,68.85
2023-03-13T04:44:44.358Z,68.72
2023-03-13T04:45:44.423Z,66.90
2023-03-13T04:46:44.341Z,68.27
2023-03-13T04:47:44.335Z,67.45
2023-03-13T04:48:44.345Z,59.10
2023-03-13T04:49:44.303Z,67.85
2023-03-13T04:50:44.344Z,55.60
2023-03-13T04:51:44.310Z,65.63
2023-03-13T04:52:44.349Z,62.04
2023-03-13T04:53:44.292Z,61.83
2023-03-13T04:54:44.309Z,67.31
2023-03-13T04:55:44.311Z,63.36
2023-03-13T04:56:44.457Z,68.87
2023-03-13T04:57:44.282Z,66.08
2023-03-13T04:58:46.837Z,61.57
2023-03-13T04:59:44.266Z,61.84
2023-03-13T05:00:44.235Z,59.57
2023-03-13T05:01:44.340Z,63.53
2023-03-13T05:02:44.301Z,66.40
2023-03-13T05:03:44.258Z,62.54
2023-03-13T05:04:44.251Z,65.73
2023-03-13T05:05:44.221Z,65.46
2023-03-13T05:06:44.216Z,63.91
2023-03-13T05:07:44.346Z,56.26
2023-03-13T05:08:44.234Z,66.11
2023-03-13T05:09:44.165Z,52.44
2023-03-13T05:10:44.173Z,64.81
2023-03-13T05:11:44.148Z,63.41
2023-03-13T05:12:44.163Z,64.74
2023-03-13T05:13:44.154Z,71.27
2023-03-13T05:14:44.145Z,67.37
2023-03-13T05:15:44.842Z,62.92
2023-03-13T05:16:44.130Z,62.44
2023-03-13T05:17:44.114Z,63.97
2023-03-13T05:18:44.188Z,67.31
2023-03-13T05:19:44.116Z,67.62
2023-03-13T05:20:44.092Z,70.10
2023-03-13T05:21:44.068Z,66.99
2023-03-13T05:22:44.090Z,70.05
2023-03-13T05:23:44.087Z,66.52
2023-03-13T05:24:44.051Z,69.41
2023-03-13T05:25:44.079Z,64.81
2023-03-13T05:26:44.108Z,71.66
2023-03-13T05:27:44.049Z,73.74
2023-03-13T05:28:44.052Z,65.44
2023-03-13T05:29:44.024Z,71.34
2023-03-13T05:30:44.086Z,72.33
2023-03-13T05:31:44.021Z,70.49
2023-03-13T05:32:44.077Z,65.79
2023-03-13T05:33:44.005Z,68.71
2023-03-13T05:34:44.779Z,62.87
2023-03-13T05:35:43.999Z,71.40
2023-03-13T05:36:44.018Z,65.63
2023-03-13T05:37:43.977Z,70.92
2023-03-13T05:38:44.025Z,64.75
2023-03-13T05:39:44.347Z,68.06
2023-03-13T05:40:43.923Z,67.51
2023-03-13T05:41:43.905Z,70.00
2023-03-13T05:42:43.951Z,71.12
2023-03-13T05:43:43.929Z,65.70
2023-03-13T05:44:43.917Z,69.98
2023-03-13T05:45:43.908Z,70.26
2023-03-13T05:46:43.919Z,70.57
2023-03-13T05:47:43.878Z,67.86
2023-03-13T05:48:43.873Z,70.98
2023-03-13T05:49:43.862Z,71.45
2023-03-13T05:50:43.870Z,68.83
2023-03-13T05:51:43.863Z,61.78
2023-03-13T05:52:43.876Z,72.25
2023-03-13T05:53:43.827Z,69.29
2023-03-13T05:54:43.832Z,68.11
2023-03-13T05:55:43.823Z,68.93
2023-03-13T05:56:43.822Z,73.81
2023-03-13T05:57:43.804Z,62.88
2023-03-13T05:58:43.867Z,69.34
2023-03-13T05:59:43.771Z,70.43
2023-03-13T06:00:43.813Z,62.92
2023-03-13T06:01:43.826Z,75.00
2023-03-13T06:02:43.766Z,64.65
2023-03-13T06:03:44.235Z,71.72
2023-03-13T06:04:44.409Z,65.70
2023-03-13T06:05:43.732Z,66.75
2023-03-13T06:06:43.737Z,72.75
2023-03-13T06:07:44.303Z,72.34
2023-03-13T06:08:43.752Z,71.68
2023-03-13T06:09:43.841Z,66.97
2023-03-13T06:10:43.698Z,68.24
2023-03-13T06:11:43.690Z,69.37
2023-03-13T06:12:43.681Z,67.83
2023-03-13T06:13:43.669Z,71.47
2023-03-13T06:14:43.677Z,69.97
2023-03-13T06:15:44.679Z,71.45
2023-03-13T06:16:43.675Z,72.03
2023-03-13T06:17:43.661Z,71.14
2023-03-13T06:18:43.705Z,67.00
2023-03-13T06:19:43.627Z,68.52
2023-03-13T06:20:43.633Z,68.58
2023-03-13T06:21:43.640Z,73.77
2023-03-13T06:22:43.605Z,74.10
2023-03-13T06:23:43.594Z,71.40
2023-03-13T06:24:43.595Z,72.97
2023-03-13T06:25:43.627Z,74.06
2023-03-13T06:26:43.646Z,72.24
2023-03-13T06:27:43.560Z,69.85
2023-03-13T06:28:43.566Z,73.34
2023-03-13T06:29:43.568Z,71.60
2023-03-13T06:30:43.581Z,69.79
2023-03-13T06:31:43.689Z,74.32
2023-03-13T06:32:43.667Z,70.94
2023-03-13T06:33:43.529Z,71.89
2023-03-13T06:34:43.560Z,72.77
2023-03-13T06:35:55.904Z,69.35
2023-03-13T06:36:45.571Z,70.98
2023-03-13T06:37:43.510Z,70.43
2023-03-13T06:38:43.503Z,71.18
2023-03-13T06:39:43.530Z,73.76
2023-03-13T06:40:43.599Z,69.37
2023-03-13T06:41:43.509Z,67.96
2023-03-13T06:42:43.526Z,73.88
2023-03-13T06:43:43.445Z,69.13
2023-03-13T06:44:43.450Z,72.87
2023-03-13T06:45:43.429Z,71.15
2023-03-13T06:46:43.679Z,70.02
2023-03-13T06:47:43.438Z,72.79
2023-03-13T06:48:43.406Z,72.56
2023-03-13T06:49:43.419Z,66.90
2023-03-13T06:50:43.413Z,70.47
2023-03-13T06:51:43.421Z,68.33
2023-03-13T06:52:44.306Z,73.03
2023-03-13T06:53:44.374Z,68.22
2023-03-13T06:54:43.383Z,70.83
2023-03-13T06:55:43.389Z,72.56
2023-03-13T06:56:43.371Z,67.48
2023-03-13T06:57:43.373Z,66.74
2023-03-13T06:58:43.356Z,68.22
2023-03-13T06:59:43.325Z,70.19
2023-03-13T07:00:43.348Z,68.67
2023-03-13T07:01:43.336Z,67.84
2023-03-13T07:02:43.460Z,68.12
2023-03-13T07:03:44.767Z,73.50
2023-03-13T07:04:45.192Z,64.14
2023-03-13T07:05:44.321Z,67.05
2023-03-13T07:06:43.267Z,70.75
2023-03-13T07:07:43.284Z,65.35
2023-03-13T07:08:43.280Z,66.19
2023-03-13T07:09:43.288Z,67.86
2023-03-13T07:10:43.348Z,73.36
2023-03-13T07:11:43.296Z,63.95
2023-03-13T07:12:43.355Z,69.71
2023-03-13T07:13:43.224Z,65.25
2023-03-13T07:14:43.262Z,67.23
2023-03-13T07:15:43.283Z,70.24
2023-03-13T07:16:43.233Z,67.20
2023-03-13T07:17:43.261Z,72.11
2023-03-13T07:18:43.196Z,69.69
2023-03-13T07:19:43.183Z,64.88
2023-03-13T07:20:43.296Z,64.92
2023-03-13T07:21:43.208Z,66.18
2023-03-13T07:22:43.172Z,63.42
2023-03-13T07:23:43.150Z,68.12
2023-03-13T07:24:43.192Z,69.89
2023-03-13T07:25:43.147Z,62.09
2023-03-13T07:26:57.965Z,68.29
2023-03-13T07:27:45.107Z,68.59
2023-03-13T07:28:43.107Z,66.79
2023-03-13T07:29:43.109Z,68.82
2023-03-13T07:30:43.117Z,67.71
2023-03-13T07:31:43.099Z,69.33
2023-03-13T07:32:43.087Z,65.85
2023-03-13T07:33:43.090Z,69.32
2023-03-13T07:34:43.054Z,66.43
2023-03-13T07:35:43.071Z,61.98
2023-03-13T07:36:43.104Z,70.63
2023-03-13T07:37:43.037Z,62.42
2023-03-13T07:38:43.039Z,65.44
2023-03-13T07:39:43.068Z,67.13
2023-03-13T07:40:43.038Z,67.61
2023-03-13T07:41:43.043Z,66.38
2023-03-13T07:42:43.016Z,70.84
2023-03-13T07:43:43.029Z,65.64
2023-03-13T07:44:43.001Z,69.91
2023-03-13T07:45:43.035Z,68.37
2023-03-13T07:46:43.028Z,69.09
2023-03-13T07:47:42.984Z,69.30
2023-03-13T07:48:42.945Z,67.14
2023-03-13T07:49:42.955Z,68.39
2023-03-13T07:50:43.031Z,69.81
2023-03-13T07:51:44.464Z,66.18
2023-03-13T07:52:43.980Z,65.81
2023-03-13T07:53:42.911Z,67.89
2023-03-13T07:54:42.997Z,70.95
2023-03-13T07:55:42.910Z,68.49
2023-03-13T07:56:42.895Z,69.04
2023-03-13T07:57:42.874Z,64.64
2023-03-13T07:58:42.878Z,59.21
2023-03-13T07:59:42.898Z,69.19
2023-03-13T08:00:42.921Z,66.33
2023-03-13T08:01:42.904Z,65.92
2023-03-13T08:02:42.953Z,71.04
2023-03-13T08:03:43.032Z,65.60
2023-03-13T08:04:42.913Z,72.21
2023-03-13T08:05:42.923Z,67.80
2023-03-13T08:06:42.899Z,61.57
2023-03-13T08:07:42.821Z,66.46
2023-03-13T08:08:42.867Z,59.50
2023-03-13T08:09:42.844Z,71.79
2023-03-13T08:11:16.255Z,68.94
2023-03-13T08:11:42.786Z,69.87
2023-03-13T08:12:42.823Z,66.08
2023-03-13T08:13:42.798Z,70.75
2023-03-13T08:14:42.779Z,65.57
2023-03-13T08:15:42.791Z,67.42
2023-03-13T08:16:42.813Z,66.33
2023-03-13T08:17:42.828Z,65.88
2023-03-13T08:18:42.734Z,69.53
2023-03-13T08:19:42.740Z,60.58
2023-03-13T08:20:45.251Z,64.50
2023-03-13T08:21:42.703Z,63.99
2023-03-13T08:22:43.373Z,70.33
2023-03-13T08:23:42.824Z,69.61
2023-03-13T08:24:42.710Z,66.93
2023-03-13T08:25:42.696Z,62.99
2023-03-13T08:26:42.701Z,71.43
2023-03-13T08:27:42.662Z,68.25
2023-03-13T08:28:43.421Z,64.15
2023-03-13T08:29:42.662Z,64.20
2023-03-13T08:30:42.668Z,72.21
2023-03-13T08:31:42.619Z,67.35
2023-03-13T08:32:43.400Z,69.56
2023-03-13T08:33:42.685Z,63.57
2023-03-13T08:34:42.699Z,70.01
2023-03-13T08:35:42.680Z,67.48
2023-03-13T08:36:42.653Z,68.78
2023-03-13T08:37:42.733Z,66.38
2023-03-13T08:38:44.120Z,69.79
2023-03-13T08:39:42.581Z,68.43
2023-03-13T08:40:42.583Z,62.86
2023-03-13T08:41:42.624Z,71.21
2023-03-13T08:42:42.532Z,66.31
2023-03-13T08:43:42.524Z,70.05
2023-03-13T08:44:42.544Z,67.85
2023-03-13T08:45:42.581Z,61.72
2023-03-13T08:46:42.628Z,64.59
2023-03-13T08:47:42.510Z,76.92
2023-03-13T08:48:42.518Z,64.96
2023-03-13T08:49:42.539Z,60.28
2023-03-13T08:50:42.564Z,71.63
2023-03-13T08:51:42.484Z,65.46
2023-03-13T08:52:42.462Z,67.06
2023-03-13T08:53:42.463Z,69.12
2023-03-13T08:54:42.574Z,72.42
2023-03-13T08:55:42.532Z,67.31
2023-03-13T08:56:42.469Z,66.43
2023-03-13T08:57:42.454Z,66.49
2023-03-13T08:58:42.448Z,69.35
2023-03-13T08:59:42.415Z,68.75
2023-03-13T09:00:42.404Z,60.59
2023-03-13T09:01:42.471Z,65.11
2023-03-13T09:02:42.442Z,66.91
2023-03-13T09:03:42.446Z,60.14
2023-03-13T09:04:42.412Z,66.10
2023-03-13T09:05:55.091Z,65.57
2023-03-13T09:06:44.440Z,67.34
2023-03-13T09:07:42.342Z,67.66
2023-03-13T09:08:42.345Z,69.97
2023-03-13T09:09:43.356Z,69.07
2023-03-13T09:10:42.330Z,65.80
2023-03-13T09:11:42.370Z,67.16
2023-03-13T09:12:42.351Z,65.84
2023-03-13T09:13:42.355Z,63.99
2023-03-13T09:14:42.866Z,66.77
2023-03-13T09:15:42.332Z,65.29
2023-03-13T09:16:42.280Z,63.01
2023-03-13T09:17:42.324Z,66.60
2023-03-13T09:18:42.302Z,63.64
2023-03-13T09:19:54.266Z,58.64
2023-03-13T09:20:44.342Z,63.52
2023-03-13T09:21:42.245Z,65.72
2023-03-13T09:22:42.249Z,64.20
2023-03-13T09:23:42.222Z,66.77
2023-03-13T09:24:42.266Z,64.33
2023-03-13T09:25:42.222Z,64.61
2023-03-13T09:26:48.996Z,61.05
2023-03-13T09:27:44.231Z,67.00
2023-03-13T09:28:42.242Z,70.89
2023-03-13T09:29:42.457Z,65.16
2023-03-13T09:30:42.308Z,64.54
2023-03-13T09:31:42.225Z,65.77
2023-03-13T09:32:42.278Z,64.46
2023-03-13T09:33:42.150Z,61.95
2023-03-13T09:34:42.158Z,69.67
2023-03-13T09:35:42.166Z,66.64
2023-03-13T09:36:42.126Z,62.65
2023-03-13T09:37:42.174Z,68.75
2023-03-13T09:38:42.118Z,66.91
2023-03-13T09:39:42.130Z,68.37
2023-03-13T09:40:42.156Z,67.90
2023-03-13T09:41:42.094Z,64.86
2023-03-13T09:42:42.103Z,66.48
2023-03-13T09:43:42.164Z,67.26
2023-03-13T09:44:42.077Z,65.45
2023-03-13T09:45:43.086Z,67.81
2023-03-13T09:46:42.108Z,70.88
2023-03-13T09:47:42.075Z,68.67
2023-03-13T09:48:42.044Z,69.08
2023-03-13T09:49:42.093Z,67.01
2023-03-13T09:50:42.075Z,63.18
2023-03-13T09:51:42.017Z,62.54
2023-03-13T09:52:42.022Z,64.59
2023-03-13T09:53:42.038Z,67.03
2023-03-13T09:54:42.017Z,64.99
2023-03-13T09:55:41.980Z,65.48
2023-03-13T09:56:41.971Z,68.51
2023-03-13T09:57:41.989Z,67.72
2023-03-13T09:58:42.208Z,64.09
2023-03-13T09:59:41.954Z,69.68
2023-03-13T10:00:42.067Z,67.96
2023-03-13T10:01:41.986Z,64.17
2023-03-13T10:02:41.935Z,64.24
2023-03-13T10:03:41.972Z,66.42
2023-03-13T10:04:42.190Z,70.17
2023-03-13T10:05:42.975Z,62.67
2023-03-13T10:06:41.896Z,69.18
2023-03-13T10:07:41.926Z,66.74
2023-03-13T10:08:41.908Z,67.00
2023-03-13T10:09:41.875Z,66.34
2023-03-13T10:10:41.886Z,60.67
2023-03-13T10:11:41.853Z,63.63
2023-03-13T10:12:41.850Z,68.78
2023-03-13T10:13:41.858Z,63.85
2023-03-13T10:14:41.926Z,66.72
2023-03-13T10:15:41.839Z,68.49
2023-03-13T10:16:41.892Z,68.99
2023-03-13T10:17:41.800Z,66.99
2023-03-13T10:18:41.839Z,66.53
2023-03-13T10:19:41.853Z,61.64
2023-03-13T10:20:41.761Z,68.96
2023-03-13T10:21:41.792Z,68.50
2023-03-13T10:22:41.793Z,68.13
2023-03-13T10:23:41.770Z,71.41
2023-03-13T10:24:41.783Z,67.68
2023-03-13T10:26:14.373Z,65.22
2023-03-13T10:26:41.745Z,66.49
2023-03-13T10:27:41.759Z,69.26
2023-03-13T10:28:41.733Z,67.01
2023-03-13T10:29:41.708Z,57.52
2023-03-13T10:30:41.727Z,66.33
2023-03-13T10:31:41.758Z,67.88
2023-03-13T10:32:41.773Z,65.22
2023-03-13T10:33:41.716Z,69.46
2023-03-13T10:34:41.845Z,61.24
2023-03-13T10:35:42.422Z,69.17
2023-03-13T10:36:41.654Z,65.06
2023-03-13T10:37:41.861Z,60.66
2023-03-13T10:38:41.648Z,65.16
2023-03-13T10:39:41.691Z,68.47
2023-03-13T10:40:41.630Z,64.95
2023-03-13T10:44:39.248Z,66.73
2023-03-13T10:45:40.388Z,66.73
2023-03-13T10:46:40.507Z,66.12
2023-03-13T10:47:40.353Z,65.88
2023-03-13T10:48:40.341Z,63.24
2023-03-13T10:49:40.923Z,66.35
2023-03-13T10:50:40.374Z,69.05
2023-03-13T10:51:40.317Z,68.04
2023-03-13T10:52:40.348Z,65.84
2023-03-13T10:53:40.296Z,66.09
2023-03-13T10:54:40.348Z,68.52
2023-03-13T10:55:40.294Z,68.86
2023-03-13T10:56:40.970Z,65.64
2023-03-13T10:57:40.304Z,69.78
2023-03-13T10:58:40.264Z,61.41
2023-03-13T10:59:40.338Z,61.03
2023-03-13T11:00:40.288Z,59.31
2023-03-13T11:01:40.274Z,64.74
2023-03-13T11:02:40.393Z,69.37
2023-03-13T11:03:41.484Z,67.33
2023-03-13T11:04:40.217Z,65.70
2023-03-13T11:05:40.212Z,64.80
2023-03-13T11:06:40.501Z,69.41
2023-03-13T11:07:40.194Z,65.35
2023-03-13T11:08:40.279Z,64.31
2023-03-13T11:09:40.233Z,66.90
2023-03-13T11:10:40.173Z,64.72
2023-03-13T11:11:40.175Z,66.18
2023-03-13T11:12:40.161Z,66.89
2023-03-13T11:13:40.982Z,67.23
2023-03-13T11:14:40.313Z,68.52
2023-03-13T11:15:40.150Z,71.31
2023-03-13T11:16:40.312Z,65.66
2023-03-13T11:17:40.141Z,68.45
2023-03-13T11:18:40.125Z,66.01
2023-03-13T11:19:40.090Z,64.77
2023-03-13T11:20:40.114Z,64.01
2023-03-13T11:21:40.091Z,66.69
2023-03-13T11:22:40.100Z,64.62
2023-03-13T11:23:40.091Z,64.36
2023-03-13T11:24:40.043Z,68.33
2023-03-13T11:25:40.047Z,64.19
2023-03-13T11:29:38.732Z,69.29
2023-03-13T11:30:38.592Z,63.42
2023-03-13T11:31:38.617Z,62.16
2023-03-13T11:32:38.645Z,66.08
2023-03-13T11:33:38.565Z,61.51
2023-03-13T11:34:38.696Z,66.40
2023-03-13T11:35:38.564Z,68.41
2023-03-13T11:36:39.151Z,67.79
2023-03-13T11:37:38.708Z,64.18
2023-03-13T11:38:38.528Z,67.17
2023-03-13T11:39:38.594Z,64.50
2023-03-13T11:40:38.488Z,69.44
2023-03-13T11:41:38.623Z,68.21
2023-03-13T11:42:38.472Z,65.96
2023-03-13T11:43:40.760Z,62.26
2023-03-13T11:44:38.521Z,65.15
2023-03-13T11:45:38.516Z,61.81
2023-03-13T11:46:38.540Z,69.09
2023-03-13T11:47:38.506Z,68.04
2023-03-13T11:48:38.471Z,69.81
2023-03-13T11:49:39.777Z,63.82
2023-03-13T11:50:39.456Z,66.72
2023-03-13T11:51:38.530Z,69.22
2023-03-13T11:52:38.407Z,69.55
2023-03-13T11:53:38.384Z,68.87
2023-03-13T11:54:38.444Z,63.52
2023-03-13T11:55:38.406Z,66.08
2023-03-13T11:56:38.454Z,61.88
2023-03-13T11:57:38.407Z,67.69
2023-03-13T11:58:38.387Z,60.15
2023-03-13T11:59:39.068Z,62.90
2023-03-13T12:00:38.512Z,69.34
2023-03-13T12:01:38.378Z,67.27
2023-03-13T12:02:38.350Z,66.84
2023-03-13T12:03:38.353Z,69.17
2023-03-13T12:04:38.357Z,65.82
2023-03-13T12:05:39.152Z,66.85
2023-03-13T12:06:38.316Z,66.00
2023-03-13T12:07:38.273Z,65.60
2023-03-13T12:08:38.297Z,65.88
2023-03-13T12:09:39.980Z,68.69
2023-03-13T12:10:38.279Z,64.52
2023-03-13T12:11:38.389Z,67.90
2023-03-13T12:12:38.258Z,66.05
2023-03-13T12:13:39.071Z,63.75
2023-03-13T12:14:38.238Z,70.24
2023-03-13T12:15:38.290Z,68.14
2023-03-13T12:16:38.273Z,65.57
2023-03-13T12:17:38.318Z,67.81
2023-03-13T12:18:38.176Z,64.31
2023-03-13T12:19:38.187Z,65.56
2023-03-13T12:20:38.185Z,70.90
2023-03-13T12:21:38.196Z,67.60
2023-03-13T12:22:38.309Z,70.18
2023-03-13T12:23:38.262Z,69.70
2023-03-13T12:24:38.167Z,67.42
2023-03-13T12:25:39.724Z,64.16
2023-03-13T12:26:39.152Z,57.13
2023-03-13T12:27:38.150Z,66.71
2023-03-13T12:28:38.327Z,65.53
2023-03-13T12:29:38.106Z,66.25
2023-03-13T12:30:38.106Z,65.57
2023-03-13T12:31:38.092Z,64.28
2023-03-13T12:32:38.740Z,69.44
2023-03-13T12:33:38.662Z,67.53
2023-03-13T12:34:38.092Z,65.42
2023-03-13T12:35:38.100Z,62.91
2023-03-13T12:36:38.208Z,68.97
2023-03-13T12:37:38.071Z,65.17
2023-03-13T12:38:38.069Z,66.47
2023-03-13T12:39:38.080Z,66.09
2023-03-13T12:40:38.028Z,66.33
2023-03-13T12:41:38.035Z,67.15
2023-03-13T12:42:38.670Z,69.42
2023-03-13T12:43:37.992Z,66.53
2023-03-13T12:44:38.212Z,64.94
2023-03-13T12:45:38.103Z,66.26
2023-03-13T12:46:38.102Z,67.92
2023-03-13T12:47:37.963Z,67.72
2023-03-13T12:48:37.966Z,69.58
2023-03-13T12:49:37.973Z,69.20
2023-03-13T12:50:37.999Z,63.98
2023-03-13T12:51:37.978Z,70.45
2023-03-13T12:52:37.946Z,65.57
2023-03-13T12:53:38.083Z,65.08
2023-03-13T12:54:37.928Z,67.35
2023-03-13T12:55:37.934Z,65.94
2023-03-13T12:56:37.888Z,66.13
2023-03-13T12:57:37.901Z,65.70
2023-03-13T12:58:37.887Z,68.09
2023-03-13T12:59:38.588Z,69.77
2023-03-13T13:00:40.147Z,66.87
2023-03-13T13:01:38.920Z,66.71
2023-03-13T13:02:37.873Z,67.30
2023-03-13T13:03:37.848Z,69.38
2023-03-13T13:04:37.916Z,68.38
2023-03-13T13:05:38.709Z,66.58
2023-03-13T13:06:37.824Z,66.87
2023-03-13T13:07:37.814Z,66.59
2023-03-13T13:08:37.866Z,66.43
2023-03-13T13:09:37.801Z,67.66
2023-03-13T13:10:38.250Z,69.33
2023-03-13T13:11:37.820Z,70.24
2023-03-13T13:12:37.790Z,72.02
2023-03-13T13:13:37.784Z,68.97
2023-03-13T13:14:37.786Z,66.51
2023-03-13T13:15:37.831Z,67.83
2023-03-13T13:16:37.746Z,67.95
2023-03-13T13:17:38.804Z,63.71
2023-03-13T13:18:38.726Z,69.89
2023-03-13T13:19:37.712Z,63.86